KNJK/NJK METAR and TAF weather

Enter ICAO airport designator
Station Type Date Time Source
KNJK METAR 2020/12/05 01:56 UTC NOAA

KNJK 050156Z 17005KT 10SM CLR 13/M09 A3017 RMK SLP230 LAST T01281089


Station Type Date Time Source
KNJK Decoded METAR 2020/12/05 01:56 UTC NOAA

El Centro, Naval Air Facility, CA, United States (KNJK) 32-49-30N 115-39-38W -13M
Dec 04, 2020 - 08:56 PM EST / 2020.12.05 0156 UTC
Wind: from the S (170 degrees) at 6 MPH (5 KT):0
Visibility: 10 mile(s):0
Sky conditions: clear
Temperature: 55.0 F (12.8 C)
Dew Point: 16.0 F (-8.9 C)
Relative Humidity: 21%
Pressure (altimeter): 30.17 in. Hg (1021 hPa)
ob: KNJK 050156Z 17005KT 10SM CLR 13/M09 A3017 RMK SLP230 LAST T01281089
cycle: 2

Station Type Date Time Source
KNJK TAF 2020/12/04 23:54 UTC NOAA

TAF KNJK 0423/0523 VRB05KT 9999 FEW200 QNH3013INS T03/0514Z T21/0522Z FS30142

Example: see airport list